sensor_id;sensor_type;location;lat;lon;timestamp;P1;durP1;ratioP1;P2;durP2;ratioP2
5821;SDS011;2937;48.562;8.022;2022-08-01T00:01:16;4.77;;;4.27;;
5821;SDS011;2937;48.562;8.022;2022-08-01T00:06:09;5.20;;;3.70;;
5821;SDS011;2937;48.562;8.022;2022-08-01T00:11:01;8.30;;;3.83;;
5821;SDS011;2937;48.562;8.022;2022-08-01T00:15:54;4.70;;;3.70;;
5821;SDS011;2937;48.562;8.022;2022-08-01T00:20:48;6.40;;;4.20;;
5821;SDS011;2937;48.562;8.022;2022-08-01T00:25:40;5.53;;;4.07;;
5821;SDS011;2937;48.562;8.022;2022-08-01T00:30:33;5.27;;;4.17;;
5821;SDS011;2937;48.562;8.022;2022-08-01T00:35:26;5.50;;;4.20;;
5821;SDS011;2937;48.562;8.022;2022-08-01T00:40:19;5.27;;;4.07;;
5821;SDS011;2937;48.562;8.022;2022-08-01T00:45:12;5.30;;;4.13;;
5821;SDS011;2937;48.562;8.022;2022-08-01T00:50:05;5.33;;;4.10;;
5821;SDS011;2937;48.562;8.022;2022-08-01T00:54:57;5.30;;;4.00;;
5821;SDS011;2937;48.562;8.022;2022-08-01T00:59:51;5.83;;;4.67;;
5821;SDS011;2937;48.562;8.022;2022-08-01T01:04:44;5.97;;;4.80;;
5821;SDS011;2937;48.562;8.022;2022-08-01T01:09:38;5.70;;;4.40;;
5821;SDS011;2937;48.562;8.022;2022-08-01T01:14:33;6.30;;;4.80;;
5821;SDS011;2937;48.562;8.022;2022-08-01T01:19:30;6.13;;;4.40;;
5821;SDS011;2937;48.562;8.022;2022-08-01T01:24:28;5.63;;;5.03;;
5821;SDS011;2937;48.562;8.022;2022-08-01T01:29:25;7.20;;;5.23;;
5821;SDS011;2937;48.562;8.022;2022-08-01T01:34:19;7.17;;;5.10;;
5821;SDS011;2937;48.562;8.022;2022-08-01T01:39:14;6.43;;;5.03;;
5821;SDS011;2937;48.562;8.022;2022-08-01T01:44:07;6.60;;;5.40;;
5821;SDS011;2937;48.562;8.022;2022-08-01T01:49:02;9.40;;;5.27;;
5821;SDS011;2937;48.562;8.022;2022-08-01T01:53:56;6.60;;;5.60;;
5821;SDS011;2937;48.562;8.022;2022-08-01T01:58:49;7.93;;;5.27;;
5821;SDS011;2937;48.562;8.022;2022-08-01T02:03:42;7.80;;;5.73;;
5821;SDS011;2937;48.562;8.022;2022-08-01T02:08:36;7.60;;;6.00;;
5821;SDS011;2937;48.562;8.022;2022-08-01T02:13:30;7.17;;;5.40;;
5821;SDS011;2937;48.562;8.022;2022-08-01T02:18:23;11.13;;;5.80;;
5821;SDS011;2937;48.562;8.022;2022-08-01T02:23:15;5.83;;;5.10;;
5821;SDS011;2937;48.562;8.022;2022-08-01T02:28:10;11.20;;;5.87;;
5821;SDS011;2937;48.562;8.022;2022-08-01T02:33:06;7.40;;;5.67;;
5821;SDS011;2937;48.562;8.022;2022-08-01T02:38:09;6.30;;;4.90;;
5821;SDS011;2937;48.562;8.022;2022-08-01T02:43:02;8.00;;;5.10;;
5821;SDS011;2937;48.562;8.022;2022-08-01T02:47:57;7.40;;;5.50;;
5821;SDS011;2937;48.562;8.022;2022-08-01T02:52:51;8.27;;;5.50;;
5821;SDS011;2937;48.562;8.022;2022-08-01T02:57:44;9.40;;;5.40;;
5821;SDS011;2937;48.562;8.022;2022-08-01T03:02:46;6.10;;;5.30;;
5821;SDS011;2937;48.562;8.022;2022-08-01T03:07:43;6.47;;;5.30;;
5821;SDS011;2937;48.562;8.022;2022-08-01T03:12:38;8.37;;;5.47;;
5821;SDS011;2937;48.562;8.022;2022-08-01T03:17:31;6.83;;;5.50;;
5821;SDS011;2937;48.562;8.022;2022-08-01T03:22:25;6.67;;;5.70;;
5821;SDS011;2937;48.562;8.022;2022-08-01T03:27:21;7.43;;;5.87;;
5821;SDS011;2937;48.562;8.022;2022-08-01T03:32:15;6.60;;;5.27;;
5821;SDS011;2937;48.562;8.022;2022-08-01T03:37:11;7.73;;;4.97;;
5821;SDS011;2937;48.562;8.022;2022-08-01T03:42:05;7.57;;;5.53;;
5821;SDS011;2937;48.562;8.022;2022-08-01T03:47:02;7.87;;;5.90;;
5821;SDS011;2937;48.562;8.022;2022-08-01T03:51:56;9.07;;;5.57;;
5821;SDS011;2937;48.562;8.022;2022-08-01T03:56:50;8.60;;;5.20;;
5821;SDS011;2937;48.562;8.022;2022-08-01T04:01:43;6.60;;;5.60;;
5821;SDS011;2937;48.562;8.022;2022-08-01T04:06:38;9.20;;;5.03;;
5821;SDS011;2937;48.562;8.022;2022-08-01T04:11:30;9.60;;;5.77;;
5821;SDS011;2937;48.562;8.022;2022-08-01T04:16:23;9.23;;;5.73;;
5821;SDS011;2937;48.562;8.022;2022-08-01T04:21:17;8.80;;;6.40;;
5821;SDS011;2937;48.562;8.022;2022-08-01T04:26:11;8.53;;;5.40;;
5821;SDS011;2937;48.562;8.022;2022-08-01T04:31:05;6.70;;;5.27;;
5821;SDS011;2937;48.562;8.022;2022-08-01T04:36:00;6.50;;;5.20;;
5821;SDS011;2937;48.562;8.022;2022-08-01T04:40:55;6.60;;;5.20;;
5821;SDS011;2937;48.562;8.022;2022-08-01T04:45:49;7.17;;;5.00;;
5821;SDS011;2937;48.562;8.022;2022-08-01T04:50:42;8.03;;;5.57;;
5821;SDS011;2937;48.562;8.022;2022-08-01T04:55:35;9.17;;;5.37;;
5821;SDS011;2937;48.562;8.022;2022-08-01T05:00:28;10.30;;;5.23;;
5821;SDS011;2937;48.562;8.022;2022-08-01T05:05:22;9.17;;;5.53;;
5821;SDS011;2937;48.562;8.022;2022-08-01T05:10:17;7.10;;;5.67;;
5821;SDS011;2937;48.562;8.022;2022-08-01T05:15:10;7.77;;;5.10;;
5821;SDS011;2937;48.562;8.022;2022-08-01T05:20:06;8.10;;;5.23;;
5821;SDS011;2937;48.562;8.022;2022-08-01T05:25:00;5.93;;;4.77;;
5821;SDS011;2937;48.562;8.022;2022-08-01T05:29:56;7.53;;;4.73;;
5821;SDS011;2937;48.562;8.022;2022-08-01T05:34:48;6.30;;;4.67;;
5821;SDS011;2937;48.562;8.022;2022-08-01T05:39:41;7.93;;;4.77;;
5821;SDS011;2937;48.562;8.022;2022-08-01T05:44:35;5.43;;;4.80;;
5821;SDS011;2937;48.562;8.022;2022-08-01T05:49:27;6.10;;;4.83;;
5821;SDS011;2937;48.562;8.022;2022-08-01T05:54:20;10.07;;;4.97;;
5821;SDS011;2937;48.562;8.022;2022-08-01T05:59:12;7.20;;;4.97;;
5821;SDS011;2937;48.562;8.022;2022-08-01T06:04:06;12.23;;;5.20;;
5821;SDS011;2937;48.562;8.022;2022-08-01T06:08:59;7.77;;;4.53;;
5821;SDS011;2937;48.562;8.022;2022-08-01T06:13:51;9.57;;;5.23;;
5821;SDS011;2937;48.562;8.022;2022-08-01T06:18:44;6.10;;;4.37;;
5821;SDS011;2937;48.562;8.022;2022-08-01T06:23:38;6.63;;;5.30;;
5821;SDS011;2937;48.562;8.022;2022-08-01T06:28:32;7.50;;;5.00;;
5821;SDS011;2937;48.562;8.022;2022-08-01T06:33:25;5.20;;;4.30;;
5821;SDS011;2937;48.562;8.022;2022-08-01T06:38:17;5.50;;;4.17;;
5821;SDS011;2937;48.562;8.022;2022-08-01T06:43:11;10.60;;;3.90;;
5821;SDS011;2937;48.562;8.022;2022-08-01T06:48:04;4.60;;;3.80;;
5821;SDS011;2937;48.562;8.022;2022-08-01T06:52:57;6.03;;;3.73;;
5821;SDS011;2937;48.562;8.022;2022-08-01T06:57:50;4.70;;;3.60;;
5821;SDS011;2937;48.562;8.022;2022-08-01T07:02:44;5.07;;;3.57;;
5821;SDS011;2937;48.562;8.022;2022-08-01T07:07:36;5.10;;;3.50;;
5821;SDS011;2937;48.562;8.022;2022-08-01T07:12:29;4.70;;;3.40;;
5821;SDS011;2937;48.562;8.022;2022-08-01T07:17:22;5.13;;;3.50;;
5821;SDS011;2937;48.562;8.022;2022-08-01T07:22:15;6.90;;;3.37;;
5821;SDS011;2937;48.562;8.022;2022-08-01T07:27:13;4.53;;;3.70;;
5821;SDS011;2937;48.562;8.022;2022-08-01T07:32:16;6.10;;;3.87;;
5821;SDS011;2937;48.562;8.022;2022-08-01T07:37:08;4.47;;;3.73;;
5821;SDS011;2937;48.562;8.022;2022-08-01T07:42:02;4.10;;;3.50;;
5821;SDS011;2937;48.562;8.022;2022-08-01T07:46:58;5.83;;;3.63;;
5821;SDS011;2937;48.562;8.022;2022-08-01T07:51:51;6.83;;;4.00;;
5821;SDS011;2937;48.562;8.022;2022-08-01T07:56:54;5.30;;;3.53;;
5821;SDS011;2937;48.562;8.022;2022-08-01T08:01:49;4.10;;;3.50;;
5821;SDS011;2937;48.562;8.022;2022-08-01T08:06:42;5.23;;;3.63;;
5821;SDS011;2937;48.562;8.022;2022-08-01T08:11:35;4.97;;;3.07;;
5821;SDS011;2937;48.562;8.022;2022-08-01T08:16:28;4.60;;;2.93;;
5821;SDS011;2937;48.562;8.022;2022-08-01T08:21:23;3.90;;;3.07;;
5821;SDS011;2937;48.562;8.022;2022-08-01T08:26:15;3.57;;;2.70;;
5821;SDS011;2937;48.562;8.022;2022-08-01T08:31:08;3.80;;;3.40;;
5821;SDS011;2937;48.562;8.022;2022-08-01T08:36:20;4.33;;;3.40;;
5821;SDS011;2937;48.562;8.022;2022-08-01T08:41:23;4.33;;;3.60;;
5821;SDS011;2937;48.562;8.022;2022-08-01T08:46:15;5.80;;;3.80;;
5821;SDS011;2937;48.562;8.022;2022-08-01T08:51:18;6.43;;;3.90;;
5821;SDS011;2937;48.562;8.022;2022-08-01T08:56:11;4.27;;;3.73;;
5821;SDS011;2937;48.562;8.022;2022-08-01T09:01:06;6.13;;;4.40;;
5821;SDS011;2937;48.562;8.022;2022-08-01T09:05:59;5.23;;;4.73;;
5821;SDS011;2937;48.562;8.022;2022-08-01T09:10:52;6.10;;;4.57;;
5821;SDS011;2937;48.562;8.022;2022-08-01T09:15:45;5.37;;;4.40;;
5821;SDS011;2937;48.562;8.022;2022-08-01T09:20:39;6.20;;;4.63;;
5821;SDS011;2937;48.562;8.022;2022-08-01T09:30:40;7.67;;;4.73;;
5821;SDS011;2937;48.562;8.022;2022-08-01T09:35:34;6.90;;;5.20;;
5821;SDS011;2937;48.562;8.022;2022-08-01T09:40:45;7.40;;;4.70;;
5821;SDS011;2937;48.562;8.022;2022-08-01T09:45:39;5.50;;;4.87;;
5821;SDS011;2937;48.562;8.022;2022-08-01T09:50:39;5.53;;;4.93;;
5821;SDS011;2937;48.562;8.022;2022-08-01T09:55:32;6.40;;;5.40;;
5821;SDS011;2937;48.562;8.022;2022-08-01T10:00:26;8.87;;;5.47;;
5821;SDS011;2937;48.562;8.022;2022-08-01T10:05:35;6.73;;;4.67;;
5821;SDS011;2937;48.562;8.022;2022-08-01T10:10:29;5.50;;;4.47;;
5821;SDS011;2937;48.562;8.022;2022-08-01T10:15:23;5.97;;;4.70;;
5821;SDS011;2937;48.562;8.022;2022-08-01T10:20:30;5.13;;;4.33;;
5821;SDS011;2937;48.562;8.022;2022-08-01T10:25:23;5.57;;;5.07;;
5821;SDS011;2937;48.562;8.022;2022-08-01T10:30:34;4.60;;;4.20;;
5821;SDS011;2937;48.562;8.022;2022-08-01T10:35:26;5.20;;;4.30;;
5821;SDS011;2937;48.562;8.022;2022-08-01T10:40:39;6.23;;;4.30;;
5821;SDS011;2937;48.562;8.022;2022-08-01T10:45:32;5.30;;;4.53;;
5821;SDS011;2937;48.562;8.022;2022-08-01T10:50:27;7.70;;;4.73;;
5821;SDS011;2937;48.562;8.022;2022-08-01T10:55:22;7.53;;;4.57;;
5821;SDS011;2937;48.562;8.022;2022-08-01T11:00:18;5.70;;;4.30;;
5821;SDS011;2937;48.562;8.022;2022-08-01T11:05:12;13.83;;;4.77;;
5821;SDS011;2937;48.562;8.022;2022-08-01T11:10:16;7.43;;;4.47;;
5821;SDS011;2937;48.562;8.022;2022-08-01T11:15:19;6.07;;;4.77;;
5821;SDS011;2937;48.562;8.022;2022-08-01T11:20:21;8.30;;;4.60;;
5821;SDS011;2937;48.562;8.022;2022-08-01T11:25:15;13.90;;;4.40;;
5821;SDS011;2937;48.562;8.022;2022-08-01T11:30:25;6.40;;;4.93;;
5821;SDS011;2937;48.562;8.022;2022-08-01T11:35:19;5.10;;;4.60;;
5821;SDS011;2937;48.562;8.022;2022-08-01T11:40:15;6.70;;;4.97;;
5821;SDS011;2937;48.562;8.022;2022-08-01T11:45:09;5.73;;;4.93;;
5821;SDS011;2937;48.562;8.022;2022-08-01T11:50:12;5.93;;;4.33;;
5821;SDS011;2937;48.562;8.022;2022-08-01T11:55:21;5.90;;;4.50;;
5821;SDS011;2937;48.562;8.022;2022-08-01T12:00:21;5.27;;;4.57;;
5821;SDS011;2937;48.562;8.022;2022-08-01T12:05:16;4.83;;;3.93;;
5821;SDS011;2937;48.562;8.022;2022-08-01T12:10:15;7.70;;;4.70;;
5821;SDS011;2937;48.562;8.022;2022-08-01T12:15:09;4.13;;;3.70;;
5821;SDS011;2937;48.562;8.022;2022-08-01T12:20:03;5.80;;;4.10;;
5821;SDS011;2937;48.562;8.022;2022-08-01T12:24:58;5.60;;;4.27;;
5821;SDS011;2937;48.562;8.022;2022-08-01T12:29:57;4.70;;;4.20;;
5821;SDS011;2937;48.562;8.022;2022-08-01T12:34:53;7.50;;;4.40;;
5821;SDS011;2937;48.562;8.022;2022-08-01T12:39:46;6.30;;;4.27;;
5821;SDS011;2937;48.562;8.022;2022-08-01T12:44:41;5.03;;;4.13;;
5821;SDS011;2937;48.562;8.022;2022-08-01T12:49:34;5.10;;;3.93;;
5821;SDS011;2937;48.562;8.022;2022-08-01T12:54:27;6.70;;;4.03;;
5821;SDS011;2937;48.562;8.022;2022-08-01T12:59:21;4.63;;;3.70;;
5821;SDS011;2937;48.562;8.022;2022-08-01T13:04:16;5.30;;;3.70;;
5821;SDS011;2937;48.562;8.022;2022-08-01T13:09:09;4.77;;;3.80;;
5821;SDS011;2937;48.562;8.022;2022-08-01T13:14:02;4.77;;;3.50;;
5821;SDS011;2937;48.562;8.022;2022-08-01T13:18:56;7.17;;;3.70;;
5821;SDS011;2937;48.562;8.022;2022-08-01T13:24:04;4.60;;;3.83;;
5821;SDS011;2937;48.562;8.022;2022-08-01T13:29:03;4.87;;;3.70;;
5821;SDS011;2937;48.562;8.022;2022-08-01T13:33:56;4.20;;;3.73;;
5821;SDS011;2937;48.562;8.022;2022-08-01T13:38:50;4.17;;;3.20;;
5821;SDS011;2937;48.562;8.022;2022-08-01T13:44:14;4.27;;;3.00;;
5821;SDS011;2937;48.562;8.022;2022-08-01T13:49:07;4.17;;;3.10;;
5821;SDS011;2937;48.562;8.022;2022-08-01T13:54:06;6.30;;;3.40;;
5821;SDS011;2937;48.562;8.022;2022-08-01T13:58:59;3.30;;;2.77;;
5821;SDS011;2937;48.562;8.022;2022-08-01T14:03:53;3.50;;;2.90;;
5821;SDS011;2937;48.562;8.022;2022-08-01T14:08:46;3.90;;;3.00;;
5821;SDS011;2937;48.562;8.022;2022-08-01T14:13:40;3.40;;;2.70;;
5821;SDS011;2937;48.562;8.022;2022-08-01T14:18:37;3.97;;;2.97;;
5821;SDS011;2937;48.562;8.022;2022-08-01T14:23:30;3.53;;;2.80;;
5821;SDS011;2937;48.562;8.022;2022-08-01T14:28:23;3.53;;;2.83;;
5821;SDS011;2937;48.562;8.022;2022-08-01T14:33:18;3.97;;;2.80;;
5821;SDS011;2937;48.562;8.022;2022-08-01T14:38:11;2.90;;;2.30;;
5821;SDS011;2937;48.562;8.022;2022-08-01T14:43:20;6.77;;;2.60;;
5821;SDS011;2937;48.562;8.022;2022-08-01T14:48:22;3.57;;;2.03;;
5821;SDS011;2937;48.562;8.022;2022-08-01T14:53:14;2.67;;;2.10;;
5821;SDS011;2937;48.562;8.022;2022-08-01T14:58:07;3.30;;;2.43;;
5821;SDS011;2937;48.562;8.022;2022-08-01T15:03:01;2.90;;;2.47;;
5821;SDS011;2937;48.562;8.022;2022-08-01T15:07:54;3.93;;;2.20;;
5821;SDS011;2937;48.562;8.022;2022-08-01T15:12:46;2.77;;;2.33;;
5821;SDS011;2937;48.562;8.022;2022-08-01T15:17:41;5.63;;;2.13;;
5821;SDS011;2937;48.562;8.022;2022-08-01T15:22:34;2.73;;;1.80;;
5821;SDS011;2937;48.562;8.022;2022-08-01T15:27:27;3.67;;;2.20;;
5821;SDS011;2937;48.562;8.022;2022-08-01T15:32:20;2.80;;;1.87;;
5821;SDS011;2937;48.562;8.022;2022-08-01T15:37:12;2.77;;;1.90;;
5821;SDS011;2937;48.562;8.022;2022-08-01T15:42:08;2.40;;;1.90;;
5821;SDS011;2937;48.562;8.022;2022-08-01T15:47:02;3.93;;;1.90;;
5821;SDS011;2937;48.562;8.022;2022-08-01T15:51:58;2.10;;;1.60;;
5821;SDS011;2937;48.562;8.022;2022-08-01T15:56:50;1.90;;;1.50;;
5821;SDS011;2937;48.562;8.022;2022-08-01T16:01:44;7.90;;;1.90;;
5821;SDS011;2937;48.562;8.022;2022-08-01T16:06:41;3.37;;;2.20;;
5821;SDS011;2937;48.562;8.022;2022-08-01T16:11:34;3.03;;;1.90;;
5821;SDS011;2937;48.562;8.022;2022-08-01T16:16:33;2.50;;;1.50;;
5821;SDS011;2937;48.562;8.022;2022-08-01T16:21:27;3.40;;;1.80;;
5821;SDS011;2937;48.562;8.022;2022-08-01T16:26:19;2.43;;;1.67;;
5821;SDS011;2937;48.562;8.022;2022-08-01T16:31:18;2.53;;;1.80;;
5821;SDS011;2937;48.562;8.022;2022-08-01T16:36:29;2.60;;;1.63;;
5821;SDS011;2937;48.562;8.022;2022-08-01T16:41:22;3.80;;;1.70;;
5821;SDS011;2937;48.562;8.022;2022-08-01T16:46:14;3.90;;;1.87;;
5821;SDS011;2937;48.562;8.022;2022-08-01T16:51:07;2.57;;;1.60;;
5821;SDS011;2937;48.562;8.022;2022-08-01T16:56:01;3.03;;;1.57;;
5821;SDS011;2937;48.562;8.022;2022-08-01T17:00:53;2.33;;;1.60;;
5821;SDS011;2937;48.562;8.022;2022-08-01T17:05:48;3.87;;;1.90;;
5821;SDS011;2937;48.562;8.022;2022-08-01T17:10:40;4.50;;;1.63;;
5821;SDS011;2937;48.562;8.022;2022-08-01T17:15:34;4.10;;;1.83;;
5821;SDS011;2937;48.562;8.022;2022-08-01T17:20:27;4.63;;;1.60;;
5821;SDS011;2937;48.562;8.022;2022-08-01T17:25:19;3.10;;;1.60;;
5821;SDS011;2937;48.562;8.022;2022-08-01T17:30:12;10.10;;;2.10;;
5821;SDS011;2937;48.562;8.022;2022-08-01T17:35:06;7.00;;;1.93;;
5821;SDS011;2937;48.562;8.022;2022-08-01T17:39:59;2.43;;;1.73;;
5821;SDS011;2937;48.562;8.022;2022-08-01T17:45:05;7.33;;;1.60;;
5821;SDS011;2937;48.562;8.022;2022-08-01T17:50:19;2.63;;;1.70;;
5821;SDS011;2937;48.562;8.022;2022-08-01T17:55:11;3.20;;;1.83;;
5821;SDS011;2937;48.562;8.022;2022-08-01T18:00:24;3.63;;;2.30;;
5821;SDS011;2937;48.562;8.022;2022-08-01T18:05:16;4.60;;;2.50;;
5821;SDS011;2937;48.562;8.022;2022-08-01T18:10:10;7.70;;;3.30;;
5821;SDS011;2937;48.562;8.022;2022-08-01T18:15:07;10.77;;;3.00;;
5821;SDS011;2937;48.562;8.022;2022-08-01T18:20:06;5.80;;;2.60;;
5821;SDS011;2937;48.562;8.022;2022-08-01T18:24:58;3.37;;;2.53;;
5821;SDS011;2937;48.562;8.022;2022-08-01T18:29:59;6.80;;;2.17;;
5821;SDS011;2937;48.562;8.022;2022-08-01T18:34:51;6.10;;;2.50;;
5821;SDS011;2937;48.562;8.022;2022-08-01T18:39:44;4.70;;;2.60;;
5821;SDS011;2937;48.562;8.022;2022-08-01T18:44:36;3.90;;;2.67;;
5821;SDS011;2937;48.562;8.022;2022-08-01T18:49:30;5.30;;;2.60;;
5821;SDS011;2937;48.562;8.022;2022-08-01T18:54:23;7.60;;;2.87;;
5821;SDS011;2937;48.562;8.022;2022-08-01T18:59:16;4.30;;;2.70;;
5821;SDS011;2937;48.562;8.022;2022-08-01T19:04:08;5.83;;;2.30;;
5821;SDS011;2937;48.562;8.022;2022-08-01T19:09:02;6.53;;;3.03;;
5821;SDS011;2937;48.562;8.022;2022-08-01T19:13:55;4.07;;;2.47;;
5821;SDS011;2937;48.562;8.022;2022-08-01T19:18:48;4.10;;;2.83;;
5821;SDS011;2937;48.562;8.022;2022-08-01T19:23:40;5.90;;;2.70;;
5821;SDS011;2937;48.562;8.022;2022-08-01T19:28:54;4.80;;;2.70;;
5821;SDS011;2937;48.562;8.022;2022-08-01T19:33:47;5.83;;;3.30;;
5821;SDS011;2937;48.562;8.022;2022-08-01T19:38:40;10.00;;;3.10;;
5821;SDS011;2937;48.562;8.022;2022-08-01T19:43:33;5.70;;;3.07;;
5821;SDS011;2937;48.562;8.022;2022-08-01T19:48:34;6.67;;;3.77;;
5821;SDS011;2937;48.562;8.022;2022-08-01T19:53:26;6.23;;;3.10;;
5821;SDS011;2937;48.562;8.022;2022-08-01T19:58:21;4.40;;;2.70;;
5821;SDS011;2937;48.562;8.022;2022-08-01T20:03:18;7.03;;;3.00;;
5821;SDS011;2937;48.562;8.022;2022-08-01T20:08:12;5.53;;;3.17;;
5821;SDS011;2937;48.562;8.022;2022-08-01T20:13:05;6.30;;;2.90;;
5821;SDS011;2937;48.562;8.022;2022-08-01T20:18:01;4.77;;;2.73;;
5821;SDS011;2937;48.562;8.022;2022-08-01T20:22:54;4.33;;;2.80;;
5821;SDS011;2937;48.562;8.022;2022-08-01T20:27:49;6.33;;;3.50;;
5821;SDS011;2937;48.562;8.022;2022-08-01T20:32:41;6.30;;;3.47;;
5821;SDS011;2937;48.562;8.022;2022-08-01T20:37:36;5.40;;;3.40;;
5821;SDS011;2937;48.562;8.022;2022-08-01T20:42:51;8.67;;;3.60;;
5821;SDS011;2937;48.562;8.022;2022-08-01T20:47:44;6.30;;;3.30;;
5821;SDS011;2937;48.562;8.022;2022-08-01T20:52:37;9.70;;;3.77;;
5821;SDS011;2937;48.562;8.022;2022-08-01T20:57:29;5.90;;;4.00;;
5821;SDS011;2937;48.562;8.022;2022-08-01T21:02:29;7.70;;;3.60;;
5821;SDS011;2937;48.562;8.022;2022-08-01T21:07:23;5.53;;;3.70;;
5821;SDS011;2937;48.562;8.022;2022-08-01T21:12:19;10.73;;;4.40;;
5821;SDS011;2937;48.562;8.022;2022-08-01T21:17:16;5.33;;;4.20;;
5821;SDS011;2937;48.562;8.022;2022-08-01T21:22:13;6.50;;;3.90;;
5821;SDS011;2937;48.562;8.022;2022-08-01T21:27:17;7.47;;;3.93;;
5821;SDS011;2937;48.562;8.022;2022-08-01T21:32:24;4.87;;;3.70;;
5821;SDS011;2937;48.562;8.022;2022-08-01T21:37:21;5.80;;;3.70;;
5821;SDS011;2937;48.562;8.022;2022-08-01T21:42:14;4.43;;;3.53;;
5821;SDS011;2937;48.562;8.022;2022-08-01T21:47:09;5.43;;;3.53;;
5821;SDS011;2937;48.562;8.022;2022-08-01T21:52:03;5.70;;;3.80;;
5821;SDS011;2937;48.562;8.022;2022-08-01T21:57:01;4.83;;;3.53;;
5821;SDS011;2937;48.562;8.022;2022-08-01T22:01:59;5.40;;;3.77;;
5821;SDS011;2937;48.562;8.022;2022-08-01T22:06:52;6.27;;;3.70;;
5821;SDS011;2937;48.562;8.022;2022-08-01T22:11:45;5.13;;;3.60;;
5821;SDS011;2937;48.562;8.022;2022-08-01T22:16:53;5.23;;;3.20;;
5821;SDS011;2937;48.562;8.022;2022-08-01T22:21:45;4.07;;;3.23;;
5821;SDS011;2937;48.562;8.022;2022-08-01T22:26:38;4.97;;;3.77;;
5821;SDS011;2937;48.562;8.022;2022-08-01T22:31:31;5.50;;;3.80;;
5821;SDS011;2937;48.562;8.022;2022-08-01T22:36:30;5.73;;;3.90;;
5821;SDS011;2937;48.562;8.022;2022-08-01T22:41:24;5.57;;;3.43;;
5821;SDS011;2937;48.562;8.022;2022-08-01T22:46:20;6.87;;;3.53;;
5821;SDS011;2937;48.562;8.022;2022-08-01T22:51:18;6.10;;;3.67;;
5821;SDS011;2937;48.562;8.022;2022-08-01T22:56:14;6.90;;;4.10;;
5821;SDS011;2937;48.562;8.022;2022-08-01T23:01:08;4.63;;;3.40;;
5821;SDS011;2937;48.562;8.022;2022-08-01T23:06:01;5.37;;;3.57;;
5821;SDS011;2937;48.562;8.022;2022-08-01T23:10:54;6.80;;;3.53;;
5821;SDS011;2937;48.562;8.022;2022-08-01T23:15:48;4.60;;;3.33;;
5821;SDS011;2937;48.562;8.022;2022-08-01T23:20:43;5.13;;;3.87;;
5821;SDS011;2937;48.562;8.022;2022-08-01T23:25:36;6.60;;;3.60;;
5821;SDS011;2937;48.562;8.022;2022-08-01T23:30:29;5.47;;;3.93;;
5821;SDS011;2937;48.562;8.022;2022-08-01T23:35:23;4.97;;;3.40;;
5821;SDS011;2937;48.562;8.022;2022-08-01T23:40:16;6.40;;;3.83;;
5821;SDS011;2937;48.562;8.022;2022-08-01T23:45:09;4.73;;;3.40;;
5821;SDS011;2937;48.562;8.022;2022-08-01T23:50:02;6.43;;;3.60;;
5821;SDS011;2937;48.562;8.022;2022-08-01T23:54:56;4.40;;;3.30;;
5821;SDS011;2937;48.562;8.022;2022-08-01T23:59:50;5.57;;;3.60;;
